Saint Bonnet de Bellac- Haute Vienne - France
Donnes mto: mardi, 31/01/2012
Date Horaire Temp. E. Hum. E. P.atmo. Pluie Vent Direction Direction Ensoleilleme Solaire P. de rose Temp au vent Rafales
31/01/2012 00:00 0,9 C 94 % 1016,3 hPa 0,0 mm 0,0 km/h (0 Bft) S-SO 202 0 min 0 W/m 0,0 C 0,9 C 0,0 km/h (0 Bft)
31/01/2012 00:10 0,9 C 94 % 1016,3 hPa 0,0 mm 0,0 km/h (0 Bft) O-SO 247 0 min 0 W/m 0,0 C 0,9 C 0,0 km/h (0 Bft)
31/01/2012 00:20 0,9 C 94 % 1016,1 hPa 0,0 mm 0,0 km/h (0 Bft) O-SO 247 0 min 0 W/m 0,0 C 0,9 C 0,0 km/h (0 Bft)
31/01/2012 00:30 0,9 C 94 % 1016,0 hPa 0,0 mm 0,0 km/h (0 Bft) O-SO 247 0 min 0 W/m 0,0 C 0,9 C 0,0 km/h (0 Bft)
31/01/2012 00:40 0,9 C 94 % 1015,9 hPa 0,8 mm 0,0 km/h (0 Bft) SO 225 0 min 0 W/m 0,0 C 0,9 C 0,0 km/h (0 Bft)
31/01/2012 00:50 0,9 C 94 % 1015,8 hPa 0,1 mm 0,0 km/h (0 Bft) O-SO 247 0 min 0 W/m 0,0 C 0,9 C 0,0 km/h (0 Bft)
31/01/2012 01:00 0,9 C 94 % 1015,9 hPa 0,1 mm 0,0 km/h (0 Bft) O-SO 247 0 min 0 W/m 0,0 C 0,9 C 0,0 km/h (0 Bft)
31/01/2012 01:10 0,9 C 94 % 1015,8 hPa 0,0 mm 0,0 km/h (0 Bft) O-SO 247 0 min 0 W/m 0,0 C 0,9 C 0,0 km/h (0 Bft)
31/01/2012 01:20 0,9 C 94 % 1015,8 hPa 0,1 mm 0,0 km/h (0 Bft) O-SO 247 0 min 0 W/m 0,0 C 0,9 C 0,0 km/h (0 Bft)
31/01/2012 01:30 0,9 C 94 % 1015,8 hPa 0,1 mm 0,0 km/h (0 Bft) O-SO 247 0 min 0 W/m 0,0 C 0,9 C 0,0 km/h (0 Bft)
31/01/2012 01:40 0,8 C 94 % 1015,7 hPa 0,1 mm 0,0 km/h (0 Bft) O-SO 247 0 min 0 W/m -0,1 C 0,8 C 0,0 km/h (0 Bft)
31/01/2012 01:50 0,8 C 94 % 1015,8 hPa 0,0 mm 0,0 km/h (0 Bft) O-SO 247 0 min 0 W/m -0,1 C 0,8 C 0,0 km/h (0 Bft)
31/01/2012 02:02 0,8 C 94 % 1015,7 hPa 0,1 mm 0,0 km/h (0 Bft) O 270 0 min 0 W/m -0,1 C 0,8 C 0,0 km/h (0 Bft)
31/01/2012 02:10 0,8 C 94 % 1015,7 hPa 0,1 mm 0,0 km/h (0 Bft) O-NO 292 0 min 0 W/m -0,1 C 0,8 C 0,0 km/h (0 Bft)
31/01/2012 02:20 0,8 C 94 % 1015,8 hPa 0,0 mm 0,0 km/h (0 Bft) O-NO 292 0 min 0 W/m -0,1 C 0,8 C 0,0 km/h (0 Bft)
31/01/2012 02:30 0,8 C 94 % 1015,7 hPa 0,1 mm 2,2 km/h (1 Bft) NO 315 0 min 0 W/m -0,1 C 0,8 C 2,2 km/h (1 Bft)
31/01/2012 02:40 0,8 C 94 % 1015,7 hPa 0,0 mm 4,3 km/h (1 Bft) NO 315 0 min 0 W/m -0,1 C 0,8 C 4,3 km/h (1 Bft)
31/01/2012 02:50 0,6 C 94 % 1015,8 hPa 0,0 mm 0,4 km/h (0 Bft) N-NO 337 0 min 0 W/m -0,3 C 0,6 C 0,4 km/h (0 Bft)
31/01/2012 03:00 0,6 C 94 % 1015,9 hPa 0,0 mm 0,0 km/h (0 Bft) N-NO 337 0 min 0 W/m -0,3 C 0,6 C 0,0 km/h (0 Bft)
31/01/2012 03:10 0,5 C 94 % 1016,0 hPa 0,1 mm 0,0 km/h (0 Bft) N-NE 22 0 min 0 W/m -0,4 C 0,5 C 0,0 km/h (0 Bft)
31/01/2012 03:20 0,4 C 94 % 1015,8 hPa 0,0 mm 3,6 km/h (1 Bft) N-NO 337 0 min 0 W/m -0,5 C 0,4 C 4,0 km/h (1 Bft)
31/01/2012 03:30 0,3 C 94 % 1015,8 hPa 0,0 mm 3,2 km/h (1 Bft) O-NO 292 0 min 0 W/m -0,5 C 0,3 C 14,0 km/h (3 Bft)
31/01/2012 03:40 0,2 C 94 % 1015,8 hPa 0,0 mm 0,4 km/h (0 Bft) NE 45 0 min 0 W/m -0,6 C 0,2 C 3,2 km/h (1 Bft)
31/01/2012 03:50 0,1 C 94 % 1015,8 hPa 0,0 mm 2,2 km/h (1 Bft) N-NE 22 0 min 0 W/m -0,7 C 0,1 C 7,6 km/h (2 Bft)
31/01/2012 04:00 0,1 C 94 % 1015,9 hPa 0,0 mm 5,8 km/h (2 Bft) N-NE 22 0 min 0 W/m -0,7 C -1,8 C 8,3 km/h (2 Bft)
31/01/2012 04:10 0,1 C 94 % 1015,8 hPa 0,0 mm 2,2 km/h (1 Bft) N-NE 22 0 min 0 W/m -0,7 C 0,1 C 4,3 km/h (1 Bft)
31/01/2012 04:20 0,1 C 94 % 1015,9 hPa 0,0 mm 4,3 km/h (1 Bft) N-NE 22 0 min 0 W/m -0,7 C 0,1 C 4,3 km/h (1 Bft)
31/01/2012 04:30 0,1 C 94 % 1015,9 hPa 0,0 mm 6,1 km/h (2 Bft) E-NE 67 0 min 0 W/m -0,7 C -1,9 C 10,8 km/h (2 Bft)
31/01/2012 04:40 0,1 C 94 % 1015,9 hPa 0,0 mm 6,1 km/h (2 Bft) N 360 0 min 0 W/m -0,7 C -1,9 C 12,6 km/h (3 Bft)
31/01/2012 04:50 0,0 C 94 % 1016,1 hPa 0,0 mm 5,0 km/h (1 Bft) N 360 0 min 0 W/m -0,8 C -1,6 C 10,4 km/h (2 Bft)
31/01/2012 05:00 0,0 C 94 % 1016,1 hPa 0,0 mm 2,9 km/h (1 Bft) N-NE 22 0 min 0 W/m -0,8 C 0,0 C 4,3 km/h (1 Bft)
31/01/2012 05:10 -0,1 C 94 % 1016,2 hPa 0,0 mm 4,7 km/h (1 Bft) NE 45 0 min 0 W/m -0,9 C -1,6 C 10,8 km/h (2 Bft)
31/01/2012 05:20 -0,1 C 94 % 1016,3 hPa 0,1 mm 6,1 km/h (2 Bft) N 360 0 min 0 W/m -0,9 C -2,2 C 7,6 km/h (2 Bft)
31/01/2012 05:30 -0,1 C 94 % 1016,3 hPa 0,0 mm 7,6 km/h (2 Bft) N 360 0 min 0 W/m -0,9 C -2,7 C 8,6 km/h (2 Bft)
31/01/2012 05:40 -0,1 C 94 % 1016,3 hPa 0,0 mm 3,6 km/h (1 Bft) N 360 0 min 0 W/m -0,9 C -0,1 C 8,3 km/h (2 Bft)
31/01/2012 05:50 -0,2 C 94 % 1016,3 hPa 0,0 mm 4,0 km/h (1 Bft) N 360 0 min 0 W/m -1,0 C -0,2 C 6,8 km/h (2 Bft)
31/01/2012 06:00 -0,2 C 94 % 1016,3 hPa 0,0 mm 9,0 km/h (2 Bft) N 360 0 min 0 W/m -1,0 C -3,3 C 14,4 km/h (3 Bft)
31/01/2012 06:10 -0,2 C 94 % 1016,4 hPa 0,0 mm 2,9 km/h (1 Bft) N 360 0 min 0 W/m -1,0 C -0,2 C 2,9 km/h (1 Bft)
31/01/2012 06:20 -0,3 C 94 % 1016,5 hPa 0,0 mm 5,0 km/h (1 Bft) N 360 0 min 0 W/m -1,1 C -1,9 C 5,0 km/h (1 Bft)
31/01/2012 06:30 -0,3 C 94 % 1016,4 hPa 0,0 mm 7,6 km/h (2 Bft) N 360 0 min 0 W/m -1,1 C -3,0 C 11,5 km/h (2 Bft)
31/01/2012 06:40 -0,3 C 94 % 1016,5 hPa 0,0 mm 5,4 km/h (2 Bft) N 360 0 min 0 W/m -1,1 C -2,1 C 5,4 km/h (2 Bft)
31/01/2012 06:50 -0,3 C 94 % 1016,5 hPa 0,0 mm 7,2 km/h (2 Bft) N 360 0 min 0 W/m -1,1 C -2,8 C 7,2 km/h (2 Bft)
31/01/2012 07:00 -0,3 C 94 % 1016,5 hPa 0,0 mm 4,7 km/h (1 Bft) N 360 0 min 0 W/m -1,1 C -1,8 C 10,1 km/h (2 Bft)
31/01/2012 07:10 -0,4 C 94 % 1016,6 hPa 0,0 mm 4,7 km/h (1 Bft) N 360 0 min 0 W/m -1,2 C -1,9 C 6,5 km/h (2 Bft)
31/01/2012 07:20 -0,4 C 94 % 1016,6 hPa 0,0 mm 2,9 km/h (1 Bft) N 360 0 min 0 W/m -1,2 C -0,4 C 3,2 km/h (1 Bft)
31/01/2012 07:30 -0,4 C 94 % 1016,6 hPa 0,0 mm 5,8 km/h (2 Bft) N 360 0 min 0 W/m -1,2 C -2,4 C 8,6 km/h (2 Bft)
31/01/2012 07:40 -0,4 C 94 % 1016,7 hPa 0,0 mm 3,2 km/h (1 Bft) N 360 0 min 0 W/m -1,2 C -0,4 C 4,3 km/h (1 Bft)
31/01/2012 07:50 -0,4 C 94 % 1016,7 hPa 0,0 mm 2,9 km/h (1 Bft) N 360 0 min 0 W/m -1,2 C -0,4 C 6,8 km/h (2 Bft)
31/01/2012 08:00 -0,4 C 94 % 1016,8 hPa 0,0 mm 7,6 km/h (2 Bft) N 360 0 min 0 W/m -1,2 C -3,1 C 9,4 km/h (2 Bft)
31/01/2012 08:10 -0,5 C 94 % 1016,9 hPa 0,0 mm 6,8 km/h (2 Bft) N 360 0 min 0 W/m -1,3 C -2,9 C 11,2 km/h (2 Bft)
31/01/2012 08:20 -0,6 C 94 % 1017,0 hPa 0,0 mm 7,6 km/h (2 Bft) N 360 0 min 0 W/m -1,4 C -3,3 C 9,0 km/h (2 Bft)
31/01/2012 08:30 -0,6 C 94 % 1017,1 hPa 0,0 mm 4,0 km/h (1 Bft) N 360 0 min 0 W/m -1,4 C -0,6 C 7,9 km/h (2 Bft)
31/01/2012 08:40 -0,6 C 94 % 1017,1 hPa 0,0 mm 7,9 km/h (2 Bft) N 360 2 min 0 W/m -1,4 C -3,4 C 11,2 km/h (2 Bft)
31/01/2012 08:50 -0,7 C 94 % 1017,2 hPa 0,0 mm 4,7 km/h (1 Bft) N 360 2 min 0 W/m -1,5 C -2,2 C 7,6 km/h (2 Bft)
31/01/2012 09:00 -0,8 C 94 % 1017,4 hPa 0,0 mm 7,6 km/h (2 Bft) N 360 2 min 0 W/m -1,6 C -3,5 C 13,7 km/h (3 Bft)
31/01/2012 09:10 -0,9 C 94 % 1017,4 hPa 0,0 mm 4,3 km/h (1 Bft) N 360 2 min 0 W/m -1,7 C -0,9 C 4,3 km/h (1 Bft)
31/01/2012 09:20 -0,9 C 94 % 1017,5 hPa 0,0 mm 9,7 km/h (2 Bft) N 360 2 min 0 W/m -1,7 C -4,3 C 11,2 km/h (2 Bft)
31/01/2012 09:30 -0,9 C 94 % 1017,7 hPa 0,0 mm 2,5 km/h (1 Bft) N 360 2 min 0 W/m -1,7 C -0,9 C 6,1 km/h (2 Bft)
31/01/2012 09:40 -0,9 C 94 % 1017,8 hPa 0,0 mm 10,1 km/h (2 Bft) N 360 2 min 0 W/m -1,7 C -4,4 C 12,6 km/h (3 Bft)
31/01/2012 09:50 -0,9 C 94 % 1017,9 hPa 0,0 mm 6,8 km/h (2 Bft) N 360 2 min 0 W/m -1,7 C -3,4 C 11,5 km/h (2 Bft)
31/01/2012 10:00 -0,9 C 94 % 1018,0 hPa 0,0 mm 7,6 km/h (2 Bft) N 360 2 min 0 W/m -1,7 C -3,7 C 14,4 km/h (3 Bft)
31/01/2012 10:10 -0,9 C 94 % 1018,1 hPa 0,0 mm 4,3 km/h (1 Bft) N 360 2 min 0 W/m -1,7 C -0,9 C 8,6 km/h (2 Bft)
31/01/2012 10:20 -0,9 C 94 % 1018,3 hPa 0,0 mm 10,4 km/h (2 Bft) N 360 2 min 0 W/m -1,7 C -4,5 C 13,0 km/h (3 Bft)
31/01/2012 10:30 -0,9 C 93 % 1018,3 hPa 0,0 mm 13,0 km/h (3 Bft) N 360 2 min 0 W/m -1,9 C -5,1 C 17,3 km/h (3 Bft)
31/01/2012 10:40 -1,0 C 93 % 1018,3 hPa 0,0 mm 7,9 km/h (2 Bft) N 360 2 min 0 W/m -2,0 C -3,9 C 8,6 km/h (2 Bft)
31/01/2012 10:50 -0,9 C 93 % 1018,4 hPa 0,0 mm 7,2 km/h (2 Bft) N 360 2 min 0 W/m -1,9 C -3,5 C 12,6 km/h (3 Bft)
31/01/2012 11:00 -0,9 C 93 % 1018,6 hPa 0,0 mm 4,0 km/h (1 Bft) N 360 2 min 0 W/m -1,9 C -0,9 C 9,7 km/h (2 Bft)
31/01/2012 11:10 -0,9 C 93 % 1018,5 hPa 0,0 mm 6,8 km/h (2 Bft) N 360 2 min 0 W/m -1,9 C -3,4 C 11,9 km/h (2 Bft)
31/01/2012 11:20 -0,8 C 93 % 1018,6 hPa 0,0 mm 9,4 km/h (2 Bft) N 360 2 min 0 W/m -1,8 C -4,1 C 14,0 km/h (3 Bft)
31/01/2012 11:30 -0,7 C 93 % 1018,7 hPa 0,0 mm 6,5 km/h (2 Bft) N 360 2 min 0 W/m -1,7 C -3,0 C 6,5 km/h (2 Bft)
31/01/2012 11:40 -0,7 C 92 % 1018,8 hPa 0,0 mm 9,7 km/h (2 Bft) N 360 2 min 0 W/m -1,8 C -4,1 C 16,9 km/h (3 Bft)
31/01/2012 11:50 -0,7 C 91 % 1018,9 hPa 0,0 mm 9,4 km/h (2 Bft) N 360 2 min 0 W/m -2,0 C -4,0 C 12,6 km/h (3 Bft)
31/01/2012 12:00 -0,6 C 91 % 1018,8 hPa 0,0 mm 11,5 km/h (2 Bft) N 360 2 min 0 W/m -1,9 C -4,4 C 15,8 km/h (3 Bft)
31/01/2012 12:10 -0,6 C 90 % 1018,9 hPa 0,0 mm 9,4 km/h (2 Bft) N 360 2 min 0 W/m -2,0 C -3,9 C 9,4 km/h (2 Bft)
31/01/2012 12:20 -0,5 C 90 % 1018,9 hPa 0,0 mm 4,7 km/h (1 Bft) N 360 2 min 0 W/m -1,9 C -2,0 C 9,4 km/h (2 Bft)
31/01/2012 12:30 -0,4 C 89 % 1018,5 hPa 0,0 mm 4,7 km/h (1 Bft) N 360 2 min 0 W/m -2,0 C -1,9 C 4,7 km/h (1 Bft)
31/01/2012 12:40 -0,4 C 89 % 1018,5 hPa 0,0 mm 7,6 km/h (2 Bft) N 360 2 min 0 W/m -2,0 C -3,1 C 7,6 km/h (2 Bft)
31/01/2012 12:50 -0,4 C 88 % 1018,3 hPa 0,0 mm 9,0 km/h (2 Bft) N 360 2 min 0 W/m -2,1 C -3,5 C 11,9 km/h (2 Bft)
31/01/2012 13:00 -0,4 C 87 % 1018,3 hPa 0,0 mm 7,6 km/h (2 Bft) N 360 2 min 0 W/m -2,3 C -3,1 C 10,8 km/h (2 Bft)
31/01/2012 13:10 -0,5 C 87 % 1018,3 hPa 0,0 mm 7,9 km/h (2 Bft) N 360 2 min 0 W/m -2,4 C -3,3 C 13,0 km/h (3 Bft)
31/01/2012 13:20 -0,5 C 87 % 1018,4 hPa 0,0 mm 7,6 km/h (2 Bft) N 360 2 min 0 W/m -2,4 C -3,2 C 9,4 km/h (2 Bft)
31/01/2012 13:30 -0,4 C 87 % 1018,5 hPa 0,0 mm 5,0 km/h (1 Bft) N 360 2 min 0 W/m -2,3 C -2,0 C 8,6 km/h (2 Bft)
31/01/2012 13:40 -0,4 C 88 % 1018,4 hPa 0,0 mm 4,0 km/h (1 Bft) N 360 2 min 0 W/m -2,1 C -0,4 C 8,3 km/h (2 Bft)
31/01/2012 13:50 -0,4 C 88 % 1018,3 hPa 0,0 mm 3,6 km/h (1 Bft) N 360 2 min 0 W/m -2,1 C -0,4 C 4,3 km/h (1 Bft)
31/01/2012 14:00 -0,3 C 87 % 1018,2 hPa 0,0 mm 2,5 km/h (1 Bft) N 360 2 min 0 W/m -2,2 C -0,3 C 6,5 km/h (2 Bft)
31/01/2012 14:10 -0,3 C 87 % 1018,4 hPa 0,0 mm 5,0 km/h (1 Bft) N 360 2 min 0 W/m -2,2 C -1,9 C 7,6 km/h (2 Bft)
31/01/2012 14:20 -0,2 C 88 % 1018,3 hPa 0,0 mm 5,4 km/h (2 Bft) N 360 2 min 0 W/m -1,9 C -2,0 C 12,2 km/h (2 Bft)
31/01/2012 14:30 -0,2 C 88 % 1018,3 hPa 0,0 mm 8,6 km/h (2 Bft) N 360 2 min 0 W/m -1,9 C -3,2 C 11,9 km/h (2 Bft)
31/01/2012 14:40 -0,2 C 88 % 1018,3 hPa 0,0 mm 3,6 km/h (1 Bft) N 360 2 min 0 W/m -1,9 C -0,2 C 3,6 km/h (1 Bft)
31/01/2012 14:50 -0,2 C 88 % 1018,7 hPa 0,0 mm 3,6 km/h (1 Bft) N 360 2 min 0 W/m -1,9 C -0,2 C 9,0 km/h (2 Bft)
31/01/2012 15:00 -0,2 C 87 % 1018,8 hPa 0,0 mm 3,2 km/h (1 Bft) N 360 2 min 0 W/m -2,1 C -0,2 C 5,0 km/h (1 Bft)
31/01/2012 15:10 -0,2 C 87 % 1018,9 hPa 0,1 mm 2,5 km/h (1 Bft) N 360 2 min 0 W/m -2,1 C -0,2 C 5,8 km/h (2 Bft)
31/01/2012 15:20 -0,3 C 87 % 1019,0 hPa 0,0 mm 2,5 km/h (1 Bft) N 360 2 min 0 W/m -2,2 C -0,3 C 2,5 km/h (1 Bft)
31/01/2012 15:30 -0,4 C 87 % 1019,1 hPa 0,0 mm 6,1 km/h (2 Bft) N 360 2 min 0 W/m -2,3 C -2,5 C 8,3 km/h (2 Bft)
31/01/2012 15:40 -0,5 C 87 % 1019,1 hPa 0,0 mm 7,2 km/h (2 Bft) N 360 2 min 0 W/m -2,4 C -3,1 C 14,0 km/h (3 Bft)
31/01/2012 15:50 -0,6 C 87 % 1019,3 hPa 0,0 mm 3,2 km/h (1 Bft) N 360 2 min 0 W/m -2,5 C -0,6 C 4,3 km/h (1 Bft)
31/01/2012 16:00 -0,6 C 87 % 1019,3 hPa 0,0 mm 4,7 km/h (1 Bft) N 360 2 min 0 W/m -2,5 C -2,1 C 7,9 km/h (2 Bft)
31/01/2012 16:10 -0,6 C 87 % 1019,2 hPa 0,0 mm 4,0 km/h (1 Bft) N 360 2 min 0 W/m -2,5 C -0,6 C 7,9 km/h (2 Bft)
31/01/2012 16:20 -0,6 C 87 % 1019,2 hPa 0,0 mm 7,6 km/h (2 Bft) N 360 2 min 0 W/m -2,5 C -3,3 C 11,5 km/h (2 Bft)
31/01/2012 16:30 -0,6 C 87 % 1019,4 hPa 0,0 mm 4,0 km/h (1 Bft) N 360 2 min 0 W/m -2,5 C -0,6 C 4,0 km/h (1 Bft)
31/01/2012 16:40 -0,7 C 87 % 1019,5 hPa 0,0 mm 6,8 km/h (2 Bft) N 360 2 min 0 W/m -2,6 C -3,1 C 10,1 km/h (2 Bft)
31/01/2012 16:50 -0,7 C 87 % 1019,6 hPa 0,0 mm 4,3 km/h (1 Bft) N 360 2 min 0 W/m -2,6 C -0,7 C 7,9 km/h (2 Bft)
31/01/2012 17:00 -0,8 C 87 % 1019,7 hPa 0,0 mm 6,5 km/h (2 Bft) N 360 2 min 0 W/m -2,7 C -3,1 C 6,5 km/h (2 Bft)
31/01/2012 17:10 -0,8 C 86 % 1019,6 hPa 0,0 mm 9,7 km/h (2 Bft) N 360 2 min 0 W/m -2,8 C -4,2 C 13,7 km/h (3 Bft)
31/01/2012 17:20 -0,8 C 86 % 1019,8 hPa 0,0 mm 3,2 km/h (1 Bft) N 360 2 min 0 W/m -2,8 C -0,8 C 4,3 km/h (1 Bft)
31/01/2012 17:30 -0,8 C 86 % 1019,8 hPa 0,0 mm 10,4 km/h (2 Bft) N 360 2 min 0 W/m -2,8 C -4,4 C 14,8 km/h (3 Bft)
31/01/2012 17:40 -0,9 C 86 % 1020,0 hPa 0,0 mm 3,6 km/h (1 Bft) N 360 2 min 0 W/m -2,9 C -0,9 C 6,8 km/h (2 Bft)
31/01/2012 17:50 -0,9 C 87 % 1019,9 hPa 0,0 mm 6,1 km/h (2 Bft) N 360 0 min 0 W/m -2,8 C -3,1 C 8,3 km/h (2 Bft)
31/01/2012 18:00 -0,9 C 87 % 1020,3 hPa 0,0 mm 3,2 km/h (1 Bft) N 360 0 min 0 W/m -2,8 C -0,9 C 3,6 km/h (1 Bft)
31/01/2012 18:10 -0,9 C 87 % 1020,1 hPa 0,0 mm 3,2 km/h (1 Bft) N 360 0 min 0 W/m -2,8 C -0,9 C 3,2 km/h (1 Bft)
31/01/2012 18:20 -0,9 C 87 % 1020,3 hPa 0,0 mm 2,9 km/h (1 Bft) N 360 0 min 0 W/m -2,8 C -0,9 C 4,3 km/h (1 Bft)
31/01/2012 18:30 -0,9 C 87 % 1020,3 hPa 0,0 mm 4,7 km/h (1 Bft) N 360 0 min 0 W/m -2,8 C -2,5 C 4,7 km/h (1 Bft)
31/01/2012 18:40 -0,9 C 87 % 1020,2 hPa 0,0 mm 7,2 km/h (2 Bft) N 360 0 min 0 W/m -2,8 C -3,5 C 14,0 km/h (3 Bft)
31/01/2012 18:50 -0,9 C 87 % 1020,3 hPa 0,0 mm 6,1 km/h (2 Bft) NE 45 0 min 0 W/m -2,8 C -3,1 C 9,0 km/h (2 Bft)
31/01/2012 19:00 -0,9 C 87 % 1020,2 hPa 0,0 mm 6,1 km/h (2 Bft) NE 45 0 min 0 W/m -2,8 C -3,1 C 8,6 km/h (2 Bft)
31/01/2012 19:10 -0,9 C 87 % 1020,2 hPa 0,0 mm 6,1 km/h (2 Bft) NE 45 0 min 0 W/m -2,8 C -3,1 C 9,4 km/h (2 Bft)
31/01/2012 19:20 -1,0 C 87 % 1019,9 hPa 0,0 mm 3,2 km/h (1 Bft) NE 45 0 min 0 W/m -2,9 C -1,0 C 6,1 km/h (2 Bft)
31/01/2012 19:30 -1,1 C 87 % 1020,1 hPa 0,0 mm 4,3 km/h (1 Bft) NE 45 0 min 0 W/m -3,0 C -1,1 C 5,8 km/h (2 Bft)
31/01/2012 19:40 -1,1 C 87 % 1020,2 hPa 0,0 mm 10,1 km/h (2 Bft) NE 45 0 min 0 W/m -3,0 C -4,7 C 13,3 km/h (3 Bft)
31/01/2012 19:50 -1,2 C 87 % 1020,2 hPa 0,0 mm 5,4 km/h (2 Bft) NE 45 0 min 0 W/m -3,1 C -3,1 C 6,8 km/h (2 Bft)
31/01/2012 20:00 -1,2 C 86 % 1020,2 hPa 0,0 mm 7,2 km/h (2 Bft) NE 45 0 min 0 W/m -3,2 C -3,9 C 10,8 km/h (2 Bft)
31/01/2012 20:10 -1,3 C 86 % 1020,2 hPa 0,0 mm 10,1 km/h (2 Bft) NE 45 0 min 0 W/m -3,3 C -4,9 C 18,4 km/h (3 Bft)
31/01/2012 20:20 -1,4 C 86 % 1020,1 hPa 0,0 mm 4,7 km/h (1 Bft) NE 45 0 min 0 W/m -3,4 C -3,0 C 9,7 km/h (2 Bft)
31/01/2012 20:30 -1,4 C 86 % 1020,1 hPa 0,0 mm 2,2 km/h (1 Bft) NE 45 0 min 0 W/m -3,4 C -1,4 C 3,2 km/h (1 Bft)
31/01/2012 20:40 -1,5 C 86 % 1020,1 hPa 0,0 mm 2,2 km/h (1 Bft) N 360 0 min 0 W/m -3,5 C -1,5 C 2,2 km/h (1 Bft)
31/01/2012 20:50 -1,5 C 85 % 1020,0 hPa 0,0 mm 4,3 km/h (1 Bft) NE 45 0 min 0 W/m -3,7 C -1,5 C 7,9 km/h (2 Bft)
31/01/2012 21:00 -1,6 C 85 % 1020,1 hPa 0,0 mm 3,2 km/h (1 Bft) NE 45 0 min 0 W/m -3,8 C -1,6 C 4,3 km/h (1 Bft)
31/01/2012 21:10 -1,5 C 85 % 1020,1 hPa 0,0 mm 4,0 km/h (1 Bft) NE 45 0 min 0 W/m -3,7 C -1,5 C 4,3 km/h (1 Bft)
31/01/2012 21:20 -1,6 C 86 % 1020,1 hPa 0,0 mm 4,0 km/h (1 Bft) NE 45 0 min 0 W/m -3,6 C -1,6 C 6,5 km/h (2 Bft)
31/01/2012 21:30 -1,6 C 86 % 1020,3 hPa 0,0 mm 2,5 km/h (1 Bft) NE 45 0 min 0 W/m -3,6 C -1,6 C 4,0 km/h (1 Bft)
31/01/2012 21:40 -1,7 C 86 % 1020,2 hPa 0,0 mm 4,3 km/h (1 Bft) NE 45 0 min 0 W/m -3,7 C -1,7 C 7,9 km/h (2 Bft)
31/01/2012 21:50 -1,7 C 86 % 1020,1 hPa 0,0 mm 3,6 km/h (1 Bft) NE 45 0 min 0 W/m -3,7 C -1,7 C 4,3 km/h (1 Bft)
31/01/2012 22:00 -1,7 C 85 % 1020,1 hPa 0,0 mm 3,2 km/h (1 Bft) N-NE 22 0 min 0 W/m -3,9 C -1,7 C 4,3 km/h (1 Bft)
31/01/2012 22:10 -1,7 C 85 % 1020,0 hPa 0,0 mm 4,0 km/h (1 Bft) E-NE 67 0 min 0 W/m -3,9 C -1,7 C 9,7 km/h (2 Bft)
31/01/2012 22:20 -1,7 C 85 % 1020,1 hPa 0,0 mm 4,0 km/h (1 Bft) NE 45 0 min 0 W/m -3,9 C -1,7 C 4,3 km/h (1 Bft)
31/01/2012 22:30 -1,8 C 85 % 1020,1 hPa 0,0 mm 0,0 km/h (0 Bft) E-SE 112 0 min 0 W/m -4,0 C -1,8 C 0,0 km/h (0 Bft)
31/01/2012 22:40 -1,9 C 85 % 1020,0 hPa 0,0 mm 1,1 km/h (1 Bft) NE 45 0 min 0 W/m -4,1 C -1,9 C 3,6 km/h (1 Bft)
31/01/2012 22:50 -2,2 C 85 % 1020,0 hPa 0,0 mm 1,4 km/h (1 Bft) NE 45 0 min 0 W/m -4,4 C -2,2 C 3,6 km/h (1 Bft)
31/01/2012 23:00 -2,5 C 86 % 1020,0 hPa 0,0 mm 0,7 km/h (0 Bft) N-NE 22 0 min 0 W/m -4,5 C -2,5 C 0,7 km/h (0 Bft)
31/01/2012 23:10 -2,7 C 86 % 1020,0 hPa 0,0 mm 2,2 km/h (1 Bft) NE 45 0 min 0 W/m -4,7 C -2,7 C 4,3 km/h (1 Bft)
31/01/2012 23:20 -2,9 C 86 % 1019,8 hPa 0,0 mm 2,2 km/h (1 Bft) NE 45 0 min 0 W/m -4,9 C -2,9 C 3,6 km/h (1 Bft)
31/01/2012 23:30 -3,1 C 86 % 1019,8 hPa 0,0 mm 0,0 km/h (0 Bft) NE 45 0 min 0 W/m -5,1 C -3,1 C 0,0 km/h (0 Bft)
31/01/2012 23:40 -3,3 C 87 % 1019,8 hPa 0,0 mm 1,1 km/h (1 Bft) NE 45 0 min 0 W/m -5,1 C -3,3 C 1,1 km/h (1 Bft)
31/01/2012 23:50 -3,5 C 87 % 1019,7 hPa 0,0 mm 0,0 km/h (0 Bft) E-NE 67 0 min 0 W/m -5,3 C -3,5 C 0,0 km/h (0 Bft)
_ Min-Heure 23:50 22:50 02:40 - 23:50 - - - - 23:50 10:30 23:50
Minimum _ -3,5 C 85 % 1015,7 hPa - 0,0 km/h (0 Bft) - - - - -5,3 C -5,1 C 0,0 km/h (0 Bft)
_ Max-Heure 01:30 10:20 21:30 00:40 10:30 - - 17:40 23:50 01:30 01:30 20:10
Maximum _ 0,9 C 94 % 1020,3 hPa 0,8 mm 13,0 km/h
N (3 Bft)
- - 2 min 0 W/m 0,0 C 0,9 C 18,4 km/h
NE (3 Bft)
Moyenne _ -0,6 C 90 % 1018,1 hPa #2,0 mm 4,6 km/h (1 Bft) N - #1:50 h 0 W/m -2,0 C -1,7 C 7,0 km/h (2 Bft)
Saint Bonnet de Bellac- Haute Vienne - France